INFORMACIÓN METAR y TAF
METAR FOR ELLX
ADDS - METARS form results

(1209 UTC 08 April 2020)
Data provider http://aviationweather.gov/metar/data/
 
METAR text: ELLX 081150Z 13007KT 060V210 CAVOK 21/03 Q1025 NOSIG
Conditions at: ELLX (LUXEMBOURG (AUT), LU) observed 1150 UTC 08 April 2020
Temperature: 21.0°C (70°F)
Dewpoint: 3.0°C (37°F) [RH = 30%]
Pressure (altimeter): 30.27 inches Hg (1025.0 mb)
Winds: from the SE (130 degrees) at 8 MPH (7 knots; 3.6 m/s)
Visibility: 6 or more miles (10+ km)
Ceiling: ceiling and visibility are OK
Clouds: unknown
Weather: no significant weather observed at this time

METAR text: ELLX 081120Z 17005KT 100V220 CAVOK 20/04 Q1025 NOSIG
Conditions at: ELLX (LUXEMBOURG (AUT), LU) observed 1120 UTC 08 April 2020
Temperature: 20.0°C (68°F)
Dewpoint: 4.0°C (39°F) [RH = 35%]
Pressure (altimeter): 30.27 inches Hg (1025.0 mb)
Winds: from the S (170 degrees) at 6 MPH (5 knots; 2.6 m/s)
Visibility: 6 or more miles (10+ km)
Ceiling: ceiling and visibility are OK
Clouds: unknown
Weather: no significant weather observed at this time

Forecast for: ELLX (LUXEMBOURG (AUT), LU)
Text: TAF ELLX 081100Z 0812/0918 19005KT CAVOK
Forecast period: 1200 UTC 08 April 2020 to 1800 UTC 09 April 2020
Forecast type: FROM: standard forecast or significant change
Winds: from the S (190 degrees) at 6 MPH (5 knots; 2.6 m/s)
Visibility: 6 or more miles 10+ km)
Ceiling: unknown
Clouds: missing
Weather: NSW  (no significant weather)

MAPA DE AEROPUERTO

INFORMACIÓN DE PISTA
Pista 06 Longitud 13123 ft Ancho 197 ft
Elevación 1158 ft Umbral desplazado 0 ft Rumbo de pista 60
Pista 24 Longitud 13123 ft Ancho 197 ft
Elevación 1214 ft Umbral desplazado 0 ft Rumbo de pista 240

FRECUANCIAS DEL AEROPUERTO
Tipo APP Nombre APP Frecuencia 118.9 MHZ
Tipo ATIS Nombre ATIS Frecuencia 135.55 MHZ
Tipo TWR Nombre TWR Frecuencia 118.1 MHZ

RADIO AYUDAS DEL AEROPUERTO
Tipo NDB Nombre Luxembourg Frecuencia 369 KHZ
Tipo VOR-DME Nombre Luxembourg Frecuencia 112250 KHZ
Tipo NDB Nombre Luxembourg Frecuencia 346 KHZ